sensor_id;sensor_type;location;lat;lon;timestamp;pressure;altitude;pressure_sealevel;temperature;humidity
12722;BME280;6425;50.316;8.114;2022-09-09T00:00:47;98462.44;;;15.30;73.16
12722;BME280;6425;50.316;8.114;2022-09-09T00:05:57;98431.16;;;15.35;73.09
12722;BME280;6425;50.316;8.114;2022-09-09T00:11:01;98454.25;;;15.39;73.41
12722;BME280;6425;50.316;8.114;2022-09-09T00:16:10;98433.63;;;15.37;73.22
12722;BME280;6425;50.316;8.114;2022-09-09T00:21:16;98432.25;;;15.48;72.61
12722;BME280;6425;50.316;8.114;2022-09-09T00:26:21;98455.56;;;15.42;73.30
12722;BME280;6425;50.316;8.114;2022-09-09T00:31:27;98440.97;;;15.41;72.87
12722;BME280;6425;50.316;8.114;2022-09-09T00:36:31;98439.50;;;15.44;72.75
12722;BME280;6425;50.316;8.114;2022-09-09T00:41:44;98443.81;;;15.50;73.08
12722;BME280;6425;50.316;8.114;2022-09-09T00:46:56;98444.25;;;15.29;73.33
12722;BME280;6425;50.316;8.114;2022-09-09T00:52:11;98443.25;;;15.25;73.59
12722;BME280;6425;50.316;8.114;2022-09-09T00:57:26;98443.72;;;15.27;73.43
12722;BME280;6425;50.316;8.114;2022-09-09T01:02:30;98443.34;;;15.20;73.96
12722;BME280;6425;50.316;8.114;2022-09-09T01:07:32;98431.78;;;15.18;74.29
12722;BME280;6425;50.316;8.114;2022-09-09T01:12:38;98440.59;;;15.20;74.28
12722;BME280;6425;50.316;8.114;2022-09-09T01:17:51;98449.97;;;15.33;73.29
12722;BME280;6425;50.316;8.114;2022-09-09T01:23:16;98446.72;;;15.67;72.00
12722;BME280;6425;50.316;8.114;2022-09-09T01:28:46;98453.84;;;15.68;71.15
12722;BME280;6425;50.316;8.114;2022-09-09T01:33:50;98451.00;;;15.23;73.03
12722;BME280;6425;50.316;8.114;2022-09-09T01:38:51;98446.03;;;15.48;72.69
12722;BME280;6425;50.316;8.114;2022-09-09T01:43:54;98443.06;;;15.58;72.46
12722;BME280;6425;50.316;8.114;2022-09-09T01:48:57;98457.44;;;15.33;73.34
12722;BME280;6425;50.316;8.114;2022-09-09T01:54:00;98445.00;;;15.08;74.11
12722;BME280;6425;50.316;8.114;2022-09-09T01:59:11;98452.63;;;15.38;73.50
12722;BME280;6425;50.316;8.114;2022-09-09T02:04:26;98443.28;;;15.48;73.08
12722;BME280;6425;50.316;8.114;2022-09-09T02:09:30;98447.56;;;14.90;74.91
12722;BME280;6425;50.316;8.114;2022-09-09T02:14:36;98450.13;;;15.00;75.02
12722;BME280;6425;50.316;8.114;2022-09-09T02:19:44;98456.34;;;14.78;76.05
12722;BME280;6425;50.316;8.114;2022-09-09T02:24:57;98457.19;;;15.07;75.16
12722;BME280;6425;50.316;8.114;2022-09-09T02:30:05;98459.41;;;15.04;74.55
12722;BME280;6425;50.316;8.114;2022-09-09T02:35:14;98455.53;;;15.19;74.52
12722;BME280;6425;50.316;8.114;2022-09-09T02:40:17;98446.44;;;15.05;75.53
12722;BME280;6425;50.316;8.114;2022-09-09T02:45:27;98441.44;;;15.07;75.22
12722;BME280;6425;50.316;8.114;2022-09-09T02:50:33;98430.31;;;14.71;76.23
12722;BME280;6425;50.316;8.114;2022-09-09T02:55:38;98435.63;;;14.95;75.96
12722;BME280;6425;50.316;8.114;2022-09-09T03:00:41;98426.50;;;15.08;75.71
12722;BME280;6425;50.316;8.114;2022-09-09T03:05:42;98416.06;;;15.55;73.66
12722;BME280;6425;50.316;8.114;2022-09-09T03:10:43;98417.94;;;15.46;73.93
12722;BME280;6425;50.316;8.114;2022-09-09T03:15:47;98442.50;;;15.34;74.25
12722;BME280;6425;50.316;8.114;2022-09-09T03:20:50;98449.78;;;15.29;75.54
12722;BME280;6425;50.316;8.114;2022-09-09T03:25:52;98455.16;;;15.35;73.20
12722;BME280;6425;50.316;8.114;2022-09-09T03:31:04;98450.53;;;14.94;76.13
12722;BME280;6425;50.316;8.114;2022-09-09T03:36:09;98453.25;;;15.71;73.23
12722;BME280;6425;50.316;8.114;2022-09-09T03:41:10;98446.38;;;15.69;73.16
12722;BME280;6425;50.316;8.114;2022-09-09T03:46:13;98458.94;;;15.39;73.48
12722;BME280;6425;50.316;8.114;2022-09-09T03:51:14;98462.59;;;15.48;73.25
12722;BME280;6425;50.316;8.114;2022-09-09T03:56:15;98467.50;;;15.51;72.66
12722;BME280;6425;50.316;8.114;2022-09-09T04:01:17;98462.72;;;15.43;73.74
12722;BME280;6425;50.316;8.114;2022-09-09T04:06:19;98456.63;;;15.68;73.24
12722;BME280;6425;50.316;8.114;2022-09-09T04:11:21;98452.31;;;15.62;73.29
12722;BME280;6425;50.316;8.114;2022-09-09T04:16:26;98459.97;;;15.43;73.61
12722;BME280;6425;50.316;8.114;2022-09-09T04:21:27;98446.34;;;15.83;72.59
12722;BME280;6425;50.316;8.114;2022-09-09T04:26:28;98439.69;;;16.28;70.62
12722;BME280;6425;50.316;8.114;2022-09-09T04:31:30;98464.03;;;16.49;69.32
12722;BME280;6425;50.316;8.114;2022-09-09T04:36:31;98468.03;;;16.43;69.58
12722;BME280;6425;50.316;8.114;2022-09-09T04:41:34;98466.94;;;15.99;70.59
12722;BME280;6425;50.316;8.114;2022-09-09T04:46:36;98462.09;;;16.04;71.05
12722;BME280;6425;50.316;8.114;2022-09-09T04:51:38;98461.91;;;15.78;71.86
12722;BME280;6425;50.316;8.114;2022-09-09T04:56:38;98445.34;;;16.23;69.89
12722;BME280;6425;50.316;8.114;2022-09-09T05:01:40;98452.38;;;16.07;71.03
12722;BME280;6425;50.316;8.114;2022-09-09T05:06:41;98460.97;;;15.83;71.03
12722;BME280;6425;50.316;8.114;2022-09-09T05:11:41;98467.03;;;15.71;72.15
12722;BME280;6425;50.316;8.114;2022-09-09T05:16:54;98471.56;;;15.67;72.60
12722;BME280;6425;50.316;8.114;2022-09-09T05:21:56;98473.47;;;16.03;71.34
12722;BME280;6425;50.316;8.114;2022-09-09T05:27:04;98477.75;;;15.87;71.61
12722;BME280;6425;50.316;8.114;2022-09-09T05:32:08;98478.09;;;16.39;70.61
12722;BME280;6425;50.316;8.114;2022-09-09T05:37:10;98465.81;;;16.00;70.77
12722;BME280;6425;50.316;8.114;2022-09-09T05:42:11;98484.59;;;16.12;70.65
12722;BME280;6425;50.316;8.114;2022-09-09T05:47:14;98485.38;;;16.35;70.01
12722;BME280;6425;50.316;8.114;2022-09-09T05:52:15;98497.53;;;16.25;69.58
12722;BME280;6425;50.316;8.114;2022-09-09T05:57:16;98491.47;;;16.45;69.98
12722;BME280;6425;50.316;8.114;2022-09-09T06:02:19;98502.97;;;16.70;69.53
12722;BME280;6425;50.316;8.114;2022-09-09T06:07:19;98502.13;;;16.07;69.83
12722;BME280;6425;50.316;8.114;2022-09-09T06:12:20;98495.59;;;16.03;71.40
12722;BME280;6425;50.316;8.114;2022-09-09T06:17:22;98496.13;;;16.14;70.24
12722;BME280;6425;50.316;8.114;2022-09-09T06:22:23;98487.53;;;16.38;68.64
12722;BME280;6425;50.316;8.114;2022-09-09T06:27:24;98485.97;;;16.00;70.30
12722;BME280;6425;50.316;8.114;2022-09-09T06:32:26;98482.03;;;16.15;70.28
12722;BME280;6425;50.316;8.114;2022-09-09T06:37:28;98489.44;;;16.28;69.58
12722;BME280;6425;50.316;8.114;2022-09-09T06:42:30;98479.31;;;16.24;69.71
12722;BME280;6425;50.316;8.114;2022-09-09T06:47:41;98477.13;;;15.90;70.63
12722;BME280;6425;50.316;8.114;2022-09-09T06:52:42;98474.22;;;16.17;70.43
12722;BME280;6425;50.316;8.114;2022-09-09T06:57:46;98481.13;;;16.28;69.62
12722;BME280;6425;50.316;8.114;2022-09-09T07:02:53;98481.13;;;16.28;70.02
12722;BME280;6425;50.316;8.114;2022-09-09T07:07:54;98475.28;;;16.30;69.00
12722;BME280;6425;50.316;8.114;2022-09-09T07:12:55;98479.75;;;17.11;67.47
12722;BME280;6425;50.316;8.114;2022-09-09T07:18:01;98486.78;;;16.77;67.39
12722;BME280;6425;50.316;8.114;2022-09-09T07:23:02;98492.50;;;16.80;68.11
12722;BME280;6425;50.316;8.114;2022-09-09T07:28:03;98496.53;;;17.14;66.74
12722;BME280;6425;50.316;8.114;2022-09-09T07:33:05;98494.16;;;17.47;66.40
12722;BME280;6425;50.316;8.114;2022-09-09T07:38:06;98507.59;;;17.89;65.66
12722;BME280;6425;50.316;8.114;2022-09-09T07:43:07;98511.63;;;17.65;64.60
12722;BME280;6425;50.316;8.114;2022-09-09T07:48:09;98515.56;;;17.90;63.86
12722;BME280;6425;50.316;8.114;2022-09-09T07:53:10;98528.59;;;17.90;64.17
12722;BME280;6425;50.316;8.114;2022-09-09T07:58:10;98525.53;;;17.83;64.80
12722;BME280;6425;50.316;8.114;2022-09-09T08:03:12;98530.16;;;17.56;65.61
12722;BME280;6425;50.316;8.114;2022-09-09T08:08:13;98531.28;;;17.38;65.30
12722;BME280;6425;50.316;8.114;2022-09-09T08:13:14;98532.34;;;17.76;64.07
12722;BME280;6425;50.316;8.114;2022-09-09T08:18:16;98529.38;;;17.07;65.33
12722;BME280;6425;50.316;8.114;2022-09-09T08:23:17;98523.63;;;17.43;65.90
12722;BME280;6425;50.316;8.114;2022-09-09T08:28:18;98530.09;;;17.78;62.71
12722;BME280;6425;50.316;8.114;2022-09-09T08:33:20;98538.06;;;18.23;62.01
12722;BME280;6425;50.316;8.114;2022-09-09T08:38:22;98547.81;;;18.47;60.72
12722;BME280;6425;50.316;8.114;2022-09-09T08:43:23;98542.50;;;17.33;63.65
12722;BME280;6425;50.316;8.114;2022-09-09T08:48:39;98534.97;;;17.99;61.30
12722;BME280;6425;50.316;8.114;2022-09-09T08:53:47;98532.88;;;19.33;58.02
12722;BME280;6425;50.316;8.114;2022-09-09T08:58:50;98531.34;;;19.53;57.92
12722;BME280;6425;50.316;8.114;2022-09-09T09:04:00;98515.06;;;19.64;57.51
12722;BME280;6425;50.316;8.114;2022-09-09T09:09:08;98521.44;;;18.06;59.48
12722;BME280;6425;50.316;8.114;2022-09-09T09:14:16;98526.34;;;17.92;60.98
12722;BME280;6425;50.316;8.114;2022-09-09T09:19:20;98517.63;;;17.59;61.56
12722;BME280;6425;50.316;8.114;2022-09-09T09:24:24;98514.22;;;18.57;58.34
12722;BME280;6425;50.316;8.114;2022-09-09T09:29:27;98517.44;;;17.38;59.26
12722;BME280;6425;50.316;8.114;2022-09-09T09:34:29;98522.38;;;17.01;59.33
12722;BME280;6425;50.316;8.114;2022-09-09T09:39:32;98535.53;;;16.42;63.60
12722;BME280;6425;50.316;8.114;2022-09-09T09:44:35;98531.91;;;15.96;68.69
12722;BME280;6425;50.316;8.114;2022-09-09T09:49:52;98533.66;;;15.92;67.24
12722;BME280;6425;50.316;8.114;2022-09-09T09:54:54;98528.06;;;16.20;68.20
12722;BME280;6425;50.316;8.114;2022-09-09T10:00:13;98556.44;;;15.75;71.03
12722;BME280;6425;50.316;8.114;2022-09-09T10:05:22;98541.75;;;15.39;73.19
12722;BME280;6425;50.316;8.114;2022-09-09T10:10:27;98524.94;;;16.44;72.74
12722;BME280;6425;50.316;8.114;2022-09-09T10:15:41;98520.78;;;16.24;69.68
12722;BME280;6425;50.316;8.114;2022-09-09T10:20:51;98522.34;;;16.16;69.91
12722;BME280;6425;50.316;8.114;2022-09-09T10:26:11;98510.72;;;16.82;66.66
12722;BME280;6425;50.316;8.114;2022-09-09T10:31:20;98508.72;;;17.79;62.51
12722;BME280;6425;50.316;8.114;2022-09-09T10:36:25;98495.28;;;17.38;59.98
12722;BME280;6425;50.316;8.114;2022-09-09T10:41:44;98501.03;;;17.59;60.58
12722;BME280;6425;50.316;8.114;2022-09-09T10:47:21;98490.75;;;18.37;59.67
12722;BME280;6425;50.316;8.114;2022-09-09T10:52:31;98490.88;;;18.67;58.41
12722;BME280;6425;50.316;8.114;2022-09-09T10:57:39;98485.88;;;18.08;56.79
12722;BME280;6425;50.316;8.114;2022-09-09T11:02:41;98494.88;;;18.05;56.71
12722;BME280;6425;50.316;8.114;2022-09-09T11:07:47;98508.41;;;17.98;55.04
12722;BME280;6425;50.316;8.114;2022-09-09T11:12:51;98497.66;;;18.05;54.64
12722;BME280;6425;50.316;8.114;2022-09-09T11:17:56;98512.16;;;17.85;55.58
12722;BME280;6425;50.316;8.114;2022-09-09T11:23:03;98495.94;;;17.43;55.47
12722;BME280;6425;50.316;8.114;2022-09-09T11:28:31;98497.59;;;17.53;56.36
12722;BME280;6425;50.316;8.114;2022-09-09T11:34:02;98494.19;;;18.25;54.65
12722;BME280;6425;50.316;8.114;2022-09-09T11:39:24;98481.28;;;18.38;53.76
12722;BME280;6425;50.316;8.114;2022-09-09T11:44:31;98475.22;;;18.62;53.60
12722;BME280;6425;50.316;8.114;2022-09-09T11:49:40;98489.25;;;20.05;47.92
12722;BME280;6425;50.316;8.114;2022-09-09T11:54:47;98487.22;;;19.72;48.17
12722;BME280;6425;50.316;8.114;2022-09-09T11:59:51;98473.09;;;18.50;50.66
12722;BME280;6425;50.316;8.114;2022-09-09T12:04:57;98478.00;;;18.62;52.27
12722;BME280;6425;50.316;8.114;2022-09-09T12:10:03;98474.84;;;18.72;51.37
12722;BME280;6425;50.316;8.114;2022-09-09T12:15:26;98478.91;;;19.43;50.06
12722;BME280;6425;50.316;8.114;2022-09-09T12:20:32;98482.28;;;19.99;49.77
12722;BME280;6425;50.316;8.114;2022-09-09T12:25:44;98473.50;;;18.87;50.20
12722;BME280;6425;50.316;8.114;2022-09-09T12:30:53;98474.53;;;19.12;49.70
12722;BME280;6425;50.316;8.114;2022-09-09T12:35:57;98491.84;;;18.71;51.52
12722;BME280;6425;50.316;8.114;2022-09-09T12:41:00;98527.97;;;17.18;56.60
12722;BME280;6425;50.316;8.114;2022-09-09T12:46:03;98526.50;;;14.40;72.47
12722;BME280;6425;50.316;8.114;2022-09-09T12:51:07;98509.09;;;14.58;77.18
12722;BME280;6425;50.316;8.114;2022-09-09T12:56:21;98489.31;;;15.89;78.44
12722;BME280;6425;50.316;8.114;2022-09-09T13:01:25;98481.25;;;16.77;71.08
12722;BME280;6425;50.316;8.114;2022-09-09T13:06:28;98468.75;;;17.45;65.91
12722;BME280;6425;50.316;8.114;2022-09-09T13:11:34;98465.53;;;17.78;64.61
12722;BME280;6425;50.316;8.114;2022-09-09T13:16:35;98450.34;;;18.10;61.08
12722;BME280;6425;50.316;8.114;2022-09-09T13:21:37;98449.75;;;18.51;58.34
12722;BME280;6425;50.316;8.114;2022-09-09T13:26:53;98441.22;;;19.12;58.58
12722;BME280;6425;50.316;8.114;2022-09-09T13:32:03;98438.16;;;18.58;58.94
12722;BME280;6425;50.316;8.114;2022-09-09T13:37:06;98433.22;;;18.72;57.44
12722;BME280;6425;50.316;8.114;2022-09-09T13:42:22;98417.41;;;19.95;51.56
12722;BME280;6425;50.316;8.114;2022-09-09T13:47:29;98445.97;;;19.62;52.03
12722;BME280;6425;50.316;8.114;2022-09-09T13:52:30;98457.81;;;18.36;55.68
12722;BME280;6425;50.316;8.114;2022-09-09T13:57:35;98450.56;;;17.88;56.09
12722;BME280;6425;50.316;8.114;2022-09-09T14:02:36;98460.03;;;18.51;56.34
12722;BME280;6425;50.316;8.114;2022-09-09T14:07:36;98476.84;;;18.54;55.77
12722;BME280;6425;50.316;8.114;2022-09-09T14:12:42;98478.72;;;17.72;58.02
12722;BME280;6425;50.316;8.114;2022-09-09T14:17:42;98498.69;;;15.88;67.41
12722;BME280;6425;50.316;8.114;2022-09-09T14:22:42;98502.41;;;15.69;71.70
12722;BME280;6425;50.316;8.114;2022-09-09T14:27:44;98473.59;;;16.20;70.71
12722;BME280;6425;50.316;8.114;2022-09-09T14:32:45;98451.28;;;17.19;71.44
12722;BME280;6425;50.316;8.114;2022-09-09T14:37:45;98452.09;;;18.88;67.76
12722;BME280;6425;50.316;8.114;2022-09-09T14:42:47;98446.06;;;19.45;63.49
12722;BME280;6425;50.316;8.114;2022-09-09T14:47:49;98460.91;;;18.90;63.37
12722;BME280;6425;50.316;8.114;2022-09-09T14:52:49;98451.72;;;18.98;63.03
12722;BME280;6425;50.316;8.114;2022-09-09T14:57:52;98451.22;;;19.76;61.76
12722;BME280;6425;50.316;8.114;2022-09-09T15:02:53;98451.72;;;19.27;63.55
12722;BME280;6425;50.316;8.114;2022-09-09T15:07:53;98467.16;;;17.62;67.07
12722;BME280;6425;50.316;8.114;2022-09-09T15:12:55;98477.31;;;17.09;66.41
12722;BME280;6425;50.316;8.114;2022-09-09T15:17:56;98476.41;;;16.60;68.99
12722;BME280;6425;50.316;8.114;2022-09-09T15:22:56;98494.97;;;16.91;68.45
12722;BME280;6425;50.316;8.114;2022-09-09T15:27:58;98500.28;;;17.18;67.34
12722;BME280;6425;50.316;8.114;2022-09-09T15:32:58;98515.50;;;16.67;68.33
12722;BME280;6425;50.316;8.114;2022-09-09T15:38:01;98517.75;;;16.65;70.17
12722;BME280;6425;50.316;8.114;2022-09-09T15:43:05;98530.88;;;16.28;72.95
12722;BME280;6425;50.316;8.114;2022-09-09T15:48:05;98533.94;;;16.27;71.71
12722;BME280;6425;50.316;8.114;2022-09-09T15:53:06;98522.19;;;15.99;73.26
12722;BME280;6425;50.316;8.114;2022-09-09T15:58:08;98537.31;;;15.65;75.31
12722;BME280;6425;50.316;8.114;2022-09-09T16:03:08;98535.81;;;15.31;77.91
12722;BME280;6425;50.316;8.114;2022-09-09T16:08:08;98535.00;;;15.17;79.84
12722;BME280;6425;50.316;8.114;2022-09-09T16:13:10;98537.75;;;15.17;80.03
12722;BME280;6425;50.316;8.114;2022-09-09T16:18:11;98536.63;;;15.18;81.15
12722;BME280;6425;50.316;8.114;2022-09-09T16:23:11;98528.97;;;15.43;79.82
12722;BME280;6425;50.316;8.114;2022-09-09T16:28:13;98535.44;;;15.24;80.55
12722;BME280;6425;50.316;8.114;2022-09-09T16:33:13;98529.59;;;15.90;79.22
12722;BME280;6425;50.316;8.114;2022-09-09T16:38:14;98531.53;;;15.12;78.95
12722;BME280;6425;50.316;8.114;2022-09-09T16:43:15;98543.69;;;14.97;79.18
12722;BME280;6425;50.316;8.114;2022-09-09T16:48:16;98542.63;;;14.65;79.39
12722;BME280;6425;50.316;8.114;2022-09-09T16:53:16;98535.94;;;14.85;78.48
12722;BME280;6425;50.316;8.114;2022-09-09T16:58:18;98537.88;;;14.85;78.20
12722;BME280;6425;50.316;8.114;2022-09-09T17:03:18;98537.03;;;14.84;76.98
12722;BME280;6425;50.316;8.114;2022-09-09T17:08:19;98544.25;;;14.66;77.41
12722;BME280;6425;50.316;8.114;2022-09-09T17:13:21;98535.13;;;14.52;77.36
12722;BME280;6425;50.316;8.114;2022-09-09T17:18:21;98551.84;;;14.42;79.04
12722;BME280;6425;50.316;8.114;2022-09-09T17:23:21;98540.81;;;14.42;78.16
12722;BME280;6425;50.316;8.114;2022-09-09T17:28:23;98548.41;;;14.64;77.81
12722;BME280;6425;50.316;8.114;2022-09-09T17:33:24;98549.16;;;14.69;77.19
12722;BME280;6425;50.316;8.114;2022-09-09T17:38:26;98560.63;;;14.76;76.90
12722;BME280;6425;50.316;8.114;2022-09-09T17:43:28;98556.75;;;15.05;76.10
12722;BME280;6425;50.316;8.114;2022-09-09T17:48:29;98554.63;;;15.29;74.68
12722;BME280;6425;50.316;8.114;2022-09-09T17:53:30;98558.31;;;15.11;75.87
12722;BME280;6425;50.316;8.114;2022-09-09T17:58:32;98566.38;;;15.76;75.08
12722;BME280;6425;50.316;8.114;2022-09-09T18:03:33;98562.34;;;15.83;73.11
12722;BME280;6425;50.316;8.114;2022-09-09T18:08:35;98566.53;;;15.66;73.23
12722;BME280;6425;50.316;8.114;2022-09-09T18:13:37;98566.81;;;14.36;78.51
12722;BME280;6425;50.316;8.114;2022-09-09T18:18:37;98577.31;;;15.26;76.40
12722;BME280;6425;50.316;8.114;2022-09-09T18:23:39;98578.56;;;15.20;75.05
12722;BME280;6425;50.316;8.114;2022-09-09T18:28:42;98567.91;;;15.41;73.84
12722;BME280;6425;50.316;8.114;2022-09-09T18:33:44;98591.22;;;15.21;74.81
12722;BME280;6425;50.316;8.114;2022-09-09T18:38:45;98583.63;;;14.86;75.82
12722;BME280;6425;50.316;8.114;2022-09-09T18:43:48;98583.44;;;14.30;78.40
12722;BME280;6425;50.316;8.114;2022-09-09T18:48:49;98590.25;;;14.52;77.51
12722;BME280;6425;50.316;8.114;2022-09-09T18:53:50;98583.06;;;14.37;77.11
12722;BME280;6425;50.316;8.114;2022-09-09T18:58:54;98599.63;;;14.51;77.52
12722;BME280;6425;50.316;8.114;2022-09-09T19:03:55;98598.28;;;14.16;77.38
12722;BME280;6425;50.316;8.114;2022-09-09T19:08:55;98605.00;;;14.23;78.40
12722;BME280;6425;50.316;8.114;2022-09-09T19:13:59;98599.38;;;14.34;77.64
12722;BME280;6425;50.316;8.114;2022-09-09T19:19:01;98601.41;;;14.93;76.36
12722;BME280;6425;50.316;8.114;2022-09-09T19:24:04;98611.06;;;14.58;76.76
12722;BME280;6425;50.316;8.114;2022-09-09T19:29:06;98609.91;;;14.64;76.46
12722;BME280;6425;50.316;8.114;2022-09-09T19:34:07;98610.53;;;14.75;75.75
12722;BME280;6425;50.316;8.114;2022-09-09T19:39:08;98610.03;;;14.54;75.43
12722;BME280;6425;50.316;8.114;2022-09-09T19:44:12;98607.53;;;14.39;76.63
12722;BME280;6425;50.316;8.114;2022-09-09T19:49:14;98603.81;;;14.67;75.33
12722;BME280;6425;50.316;8.114;2022-09-09T19:54:14;98597.38;;;14.72;75.31
12722;BME280;6425;50.316;8.114;2022-09-09T19:59:16;98606.41;;;14.40;76.70
12722;BME280;6425;50.316;8.114;2022-09-09T20:04:17;98611.34;;;14.43;76.06
12722;BME280;6425;50.316;8.114;2022-09-09T20:09:17;98619.91;;;14.22;76.33
12722;BME280;6425;50.316;8.114;2022-09-09T20:14:19;98616.41;;;13.98;76.54
12722;BME280;6425;50.316;8.114;2022-09-09T20:19:20;98630.41;;;14.01;76.93
12722;BME280;6425;50.316;8.114;2022-09-09T20:24:20;98618.03;;;14.37;75.87
12722;BME280;6425;50.316;8.114;2022-09-09T20:29:22;98616.94;;;14.00;76.46
12722;BME280;6425;50.316;8.114;2022-09-09T20:34:22;98614.19;;;14.38;75.41
12722;BME280;6425;50.316;8.114;2022-09-09T20:39:23;98621.88;;;14.03;76.17
12722;BME280;6425;50.316;8.114;2022-09-09T20:44:25;98616.56;;;13.88;76.19
12722;BME280;6425;50.316;8.114;2022-09-09T20:49:25;98612.56;;;13.99;76.18
12722;BME280;6425;50.316;8.114;2022-09-09T20:54:27;98617.09;;;13.90;76.81
12722;BME280;6425;50.316;8.114;2022-09-09T20:59:29;98635.69;;;13.98;76.80
12722;BME280;6425;50.316;8.114;2022-09-09T21:04:29;98637.03;;;13.82;76.73
12722;BME280;6425;50.316;8.114;2022-09-09T21:09:30;98625.38;;;13.42;78.55
12722;BME280;6425;50.316;8.114;2022-09-09T21:14:32;98618.16;;;13.51;79.60
12722;BME280;6425;50.316;8.114;2022-09-09T21:19:32;98619.09;;;13.84;78.62
12722;BME280;6425;50.316;8.114;2022-09-09T21:24:32;98620.50;;;13.82;78.06
12722;BME280;6425;50.316;8.114;2022-09-09T21:29:34;98622.41;;;13.62;78.82
12722;BME280;6425;50.316;8.114;2022-09-09T21:34:35;98624.81;;;13.88;78.25
12722;BME280;6425;50.316;8.114;2022-09-09T21:39:35;98611.94;;;14.02;77.36
12722;BME280;6425;50.316;8.114;2022-09-09T21:44:39;98626.31;;;14.18;77.27
12722;BME280;6425;50.316;8.114;2022-09-09T21:49:39;98634.50;;;14.04;77.20
12722;BME280;6425;50.316;8.114;2022-09-09T21:54:40;98650.34;;;13.93;77.61
12722;BME280;6425;50.316;8.114;2022-09-09T21:59:42;98646.34;;;14.23;76.94
12722;BME280;6425;50.316;8.114;2022-09-09T22:04:42;98670.25;;;14.47;76.91
12722;BME280;6425;50.316;8.114;2022-09-09T22:09:42;98670.47;;;15.90;73.87
12722;BME280;6425;50.316;8.114;2022-09-09T22:14:44;98671.97;;;16.23;68.69
12722;BME280;6425;50.316;8.114;2022-09-09T22:19:45;98665.03;;;15.98;68.94
12722;BME280;6425;50.316;8.114;2022-09-09T22:24:45;98656.34;;;14.90;72.06
12722;BME280;6425;50.316;8.114;2022-09-09T22:29:47;98661.25;;;15.67;70.75
12722;BME280;6425;50.316;8.114;2022-09-09T22:34:48;98651.69;;;16.73;67.55
12722;BME280;6425;50.316;8.114;2022-09-09T22:39:48;98643.59;;;17.30;65.04
12722;BME280;6425;50.316;8.114;2022-09-09T22:44:50;98636.66;;;16.79;65.51
12722;BME280;6425;50.316;8.114;2022-09-09T22:49:51;98653.56;;;16.05;68.17
12722;BME280;6425;50.316;8.114;2022-09-09T22:54:51;98652.88;;;15.58;70.33
12722;BME280;6425;50.316;8.114;2022-09-09T22:59:53;98649.41;;;15.06;72.49
12722;BME280;6425;50.316;8.114;2022-09-09T23:04:53;98664.06;;;15.07;72.65
12722;BME280;6425;50.316;8.114;2022-09-09T23:09:54;98660.28;;;15.16;72.75
12722;BME280;6425;50.316;8.114;2022-09-09T23:14:56;98673.72;;;14.90;73.11
12722;BME280;6425;50.316;8.114;2022-09-09T23:19:56;98661.88;;;14.71;74.49
12722;BME280;6425;50.316;8.114;2022-09-09T23:24:56;98675.09;;;13.50;79.47
12722;BME280;6425;50.316;8.114;2022-09-09T23:29:58;98663.34;;;13.16;80.95
12722;BME280;6425;50.316;8.114;2022-09-09T23:34:58;98676.81;;;13.17;81.77
12722;BME280;6425;50.316;8.114;2022-09-09T23:39:59;98665.66;;;13.80;79.10
12722;BME280;6425;50.316;8.114;2022-09-09T23:45:01;98654.97;;;13.55;79.46
12722;BME280;6425;50.316;8.114;2022-09-09T23:50:02;98658.28;;;13.76;79.16
12722;BME280;6425;50.316;8.114;2022-09-09T23:55:03;98660.69;;;13.59;80.04
